sensor_id;sensor_type;location;lat;lon;timestamp;pressure;altitude;pressure_sealevel;temperature;humidity
75972;BME280;64651;47.540;19.088;2023-03-01T00:04:49;101540.59;;;5.54;57.96
75972;BME280;64651;47.540;19.088;2023-03-01T00:09:51;101529.47;;;5.49;57.15
75972;BME280;64651;47.540;19.088;2023-03-01T00:14:53;101527.16;;;5.53;57.40
75972;BME280;64651;47.540;19.088;2023-03-01T00:19:56;101517.00;;;5.28;57.54
75972;BME280;64651;47.540;19.088;2023-03-01T00:24:58;101523.69;;;5.32;57.27
75972;BME280;64651;47.540;19.088;2023-03-01T00:30:00;101533.88;;;5.50;57.11
75972;BME280;64651;47.540;19.088;2023-03-01T00:35:03;101521.41;;;5.29;56.43
75972;BME280;64651;47.540;19.088;2023-03-01T00:40:06;101546.91;;;5.48;56.68
75972;BME280;64651;47.540;19.088;2023-03-01T00:45:08;101523.66;;;5.39;56.83
75972;BME280;64651;47.540;19.088;2023-03-01T00:50:11;101547.47;;;5.57;56.35
75972;BME280;64651;47.540;19.088;2023-03-01T00:55:13;101540.75;;;5.59;56.77
75972;BME280;64651;47.540;19.088;2023-03-01T01:00:16;101532.78;;;5.58;56.42
75972;BME280;64651;47.540;19.088;2023-03-01T01:05:18;101520.00;;;5.52;56.44
75972;BME280;64651;47.540;19.088;2023-03-01T01:10:22;101546.81;;;5.61;55.92
75972;BME280;64651;47.540;19.088;2023-03-01T01:15:24;101548.69;;;5.67;57.02
75972;BME280;64651;47.540;19.088;2023-03-01T01:20:27;101520.84;;;5.52;56.43
75972;BME280;64651;47.540;19.088;2023-03-01T01:25:29;101535.69;;;5.63;55.65
75972;BME280;64651;47.540;19.088;2023-03-01T01:30:31;101522.50;;;5.60;56.18
75972;BME280;64651;47.540;19.088;2023-03-01T01:35:33;101519.19;;;5.51;56.45
75972;BME280;64651;47.540;19.088;2023-03-01T01:40:43;101481.28;;;5.37;57.14
75972;BME280;64651;47.540;19.088;2023-03-01T01:45:45;101487.16;;;5.34;56.49
75972;BME280;64651;47.540;19.088;2023-03-01T01:50:54;101493.25;;;5.36;56.82
75972;BME280;64651;47.540;19.088;2023-03-01T01:56:00;101474.22;;;5.22;56.97
75972;BME280;64651;47.540;19.088;2023-03-01T02:01:04;101482.91;;;5.44;57.88
75972;BME280;64651;47.540;19.088;2023-03-01T02:11:33;101480.44;;;5.36;57.37
75972;BME280;64651;47.540;19.088;2023-03-01T02:16:36;101462.00;;;5.25;57.55
75972;BME280;64651;47.540;19.088;2023-03-01T02:21:41;101442.66;;;5.33;57.58
75972;BME280;64651;47.540;19.088;2023-03-01T02:26:52;101464.47;;;5.40;57.31
75972;BME280;64651;47.540;19.088;2023-03-01T02:31:58;101468.22;;;5.39;57.81
75972;BME280;64651;47.540;19.088;2023-03-01T02:37:07;101466.84;;;5.29;57.79
75972;BME280;64651;47.540;19.088;2023-03-01T02:42:13;101443.56;;;5.20;58.61
75972;BME280;64651;47.540;19.088;2023-03-01T02:47:16;101457.16;;;5.34;57.98
75972;BME280;64651;47.540;19.088;2023-03-01T02:57:45;101450.47;;;5.29;59.13
75972;BME280;64651;47.540;19.088;2023-03-01T03:02:52;101443.72;;;5.32;59.23
75972;BME280;64651;47.540;19.088;2023-03-01T03:07:56;101425.97;;;5.16;58.91
75972;BME280;64651;47.540;19.088;2023-03-01T03:13:02;101444.03;;;5.17;59.51
75972;BME280;64651;47.540;19.088;2023-03-01T03:18:08;101434.59;;;5.13;59.66
75972;BME280;64651;47.540;19.088;2023-03-01T03:23:11;101426.03;;;5.10;60.46
75972;BME280;64651;47.540;19.088;2023-03-01T03:28:13;101415.47;;;5.20;60.22
75972;BME280;64651;47.540;19.088;2023-03-01T03:33:17;101428.47;;;5.24;60.07
75972;BME280;64651;47.540;19.088;2023-03-01T03:38:20;101434.25;;;5.35;60.01
75972;BME280;64651;47.540;19.088;2023-03-01T03:43:24;101424.44;;;5.27;59.85
75972;BME280;64651;47.540;19.088;2023-03-01T03:48:26;101422.47;;;5.41;59.84
75972;BME280;64651;47.540;19.088;2023-03-01T03:53:31;101429.03;;;5.33;59.73
75972;BME280;64651;47.540;19.088;2023-03-01T03:58:33;101432.84;;;5.25;59.58
75972;BME280;64651;47.540;19.088;2023-03-01T04:03:35;101437.53;;;5.18;59.75
75972;BME280;64651;47.540;19.088;2023-03-01T04:08:37;101418.88;;;5.09;59.73
75972;BME280;64651;47.540;19.088;2023-03-01T04:13:40;101428.09;;;5.14;59.38
75972;BME280;64651;47.540;19.088;2023-03-01T04:18:42;101439.81;;;5.21;59.70
75972;BME280;64651;47.540;19.088;2023-03-01T04:23:44;101401.94;;;5.00;59.91
75972;BME280;64651;47.540;19.088;2023-03-01T04:28:46;101435.19;;;5.22;59.72
75972;BME280;64651;47.540;19.088;2023-03-01T04:33:52;101439.81;;;5.21;59.68
75972;BME280;64651;47.540;19.088;2023-03-01T04:38:55;101419.34;;;5.06;59.67
75972;BME280;64651;47.540;19.088;2023-03-01T04:43:57;101439.03;;;5.08;59.57
75972;BME280;64651;47.540;19.088;2023-03-01T04:49:03;101434.00;;;5.11;60.15
75972;BME280;64651;47.540;19.088;2023-03-01T04:54:05;101420.16;;;5.06;60.19
75972;BME280;64651;47.540;19.088;2023-03-01T04:59:10;101420.94;;;5.13;59.69
75972;BME280;64651;47.540;19.088;2023-03-01T05:04:14;101421.78;;;5.14;59.55
75972;BME280;64651;47.540;19.088;2023-03-01T05:09:16;101405.94;;;4.98;60.10
75972;BME280;64651;47.540;19.088;2023-03-01T05:14:19;101424.78;;;5.06;59.90
75972;BME280;64651;47.540;19.088;2023-03-01T05:19:21;101405.94;;;4.98;60.27
75972;BME280;64651;47.540;19.088;2023-03-01T05:24:24;101423.47;;;5.15;60.43
75972;BME280;64651;47.540;19.088;2023-03-01T05:29:28;101411.88;;;5.19;60.38
75972;BME280;64651;47.540;19.088;2023-03-01T05:34:33;101421.38;;;5.17;60.33
75972;BME280;64651;47.540;19.088;2023-03-01T05:39:37;101429.34;;;5.18;60.79
75972;BME280;64651;47.540;19.088;2023-03-01T05:44:39;101410.50;;;5.10;61.07
75972;BME280;64651;47.540;19.088;2023-03-01T05:49:41;101439.38;;;5.24;60.60
75972;BME280;64651;47.540;19.088;2023-03-01T05:54:43;101438.03;;;5.34;60.42
75972;BME280;64651;47.540;19.088;2023-03-01T05:59:45;101447.28;;;5.32;60.27
75972;BME280;64651;47.540;19.088;2023-03-01T06:04:47;101432.75;;;5.39;60.66
75972;BME280;64651;47.540;19.088;2023-03-01T06:09:50;101443.37;;;5.53;60.44
75972;BME280;64651;47.540;19.088;2023-03-01T06:14:52;101442.09;;;5.56;59.79
75972;BME280;64651;47.540;19.088;2023-03-01T06:19:54;101447.53;;;5.56;59.40
75972;BME280;64651;47.540;19.088;2023-03-01T06:24:56;101429.56;;;5.48;59.41
75972;BME280;64651;47.540;19.088;2023-03-01T06:29:59;101448.97;;;5.65;58.98
75972;BME280;64651;47.540;19.088;2023-03-01T06:35:01;101447.50;;;5.62;59.04
75972;BME280;64651;47.540;19.088;2023-03-01T06:40:04;101450.81;;;5.71;58.60
75972;BME280;64651;47.540;19.088;2023-03-01T06:45:10;101447.72;;;5.86;57.92
75972;BME280;64651;47.540;19.088;2023-03-01T06:50:14;101459.81;;;6.03;57.88
75972;BME280;64651;47.540;19.088;2023-03-01T06:55:16;101445.97;;;5.98;57.24
75972;BME280;64651;47.540;19.088;2023-03-01T07:00:19;101449.31;;;6.00;57.14
75972;BME280;64651;47.540;19.088;2023-03-01T07:05:21;101461.47;;;6.04;57.25
75972;BME280;64651;47.540;19.088;2023-03-01T07:10:23;101451.72;;;6.15;56.82
75972;BME280;64651;47.540;19.088;2023-03-01T07:15:26;101458.72;;;6.47;56.16
75972;BME280;64651;47.540;19.088;2023-03-01T07:20:29;101466.66;;;6.55;55.92
75972;BME280;64651;47.540;19.088;2023-03-01T07:25:31;101456.41;;;6.87;55.15
75972;BME280;64651;47.540;19.088;2023-03-01T07:30:33;101452.81;;;7.05;54.44
75972;BME280;64651;47.540;19.088;2023-03-01T07:35:36;101449.06;;;7.17;53.69
75972;BME280;64651;47.540;19.088;2023-03-01T07:40:38;101456.78;;;7.50;52.65
75972;BME280;64651;47.540;19.088;2023-03-01T07:45:40;101451.47;;;7.55;52.22
75972;BME280;64651;47.540;19.088;2023-03-01T07:50:42;101443.00;;;7.68;51.92
75972;BME280;64651;47.540;19.088;2023-03-01T07:55:44;101429.78;;;7.54;51.76
75972;BME280;64651;47.540;19.088;2023-03-01T08:00:49;101432.97;;;8.15;50.71
75972;BME280;64651;47.540;19.088;2023-03-01T08:05:51;101431.78;;;8.58;49.78
75972;BME280;64651;47.540;19.088;2023-03-01T08:10:57;101433.69;;;8.58;49.66
75972;BME280;64651;47.540;19.088;2023-03-01T08:16:01;101431.06;;;8.51;49.49
75972;BME280;64651;47.540;19.088;2023-03-01T08:21:13;101427.44;;;8.74;48.82
75972;BME280;64651;47.540;19.088;2023-03-01T08:26:17;101409.25;;;8.44;48.61
75972;BME280;64651;47.540;19.088;2023-03-01T08:31:22;101416.22;;;8.75;48.20
75972;BME280;64651;47.540;19.088;2023-03-01T08:36:27;101425.59;;;8.91;48.43
75972;BME280;64651;47.540;19.088;2023-03-01T08:41:30;101409.47;;;9.23;47.37
75972;BME280;64651;47.540;19.088;2023-03-01T08:46:36;101401.78;;;9.70;46.34
75972;BME280;64651;47.540;19.088;2023-03-01T08:51:38;101399.41;;;10.24;44.80
75972;BME280;64651;47.540;19.088;2023-03-01T08:56:41;101396.03;;;10.82;43.42
75972;BME280;64651;47.540;19.088;2023-03-01T09:01:43;101399.25;;;11.49;41.60
75972;BME280;64651;47.540;19.088;2023-03-01T09:06:45;101390.56;;;12.93;39.46
75972;BME280;64651;47.540;19.088;2023-03-01T09:11:48;101386.75;;;12.42;38.57
75972;BME280;64651;47.540;19.088;2023-03-01T09:16:51;101383.19;;;12.47;39.75
75972;BME280;64651;47.540;19.088;2023-03-01T09:21:54;101370.22;;;14.26;36.68
75972;BME280;64651;47.540;19.088;2023-03-01T09:26:57;101369.28;;;14.66;35.69
75972;BME280;64651;47.540;19.088;2023-03-01T09:32:02;101346.06;;;14.52;36.29
75972;BME280;64651;47.540;19.088;2023-03-01T09:37:05;101348.91;;;16.08;32.54
75972;BME280;64651;47.540;19.088;2023-03-01T09:42:12;101347.56;;;17.00;31.79
75972;BME280;64651;47.540;19.088;2023-03-01T09:47:34;101340.91;;;16.54;31.86
75972;BME280;64651;47.540;19.088;2023-03-01T09:52:41;101326.69;;;18.19;30.03
75972;BME280;64651;47.540;19.088;2023-03-01T09:57:50;101332.34;;;17.68;29.86
75972;BME280;64651;47.540;19.088;2023-03-01T10:03:26;101307.31;;;18.41;29.69
75972;BME280;64651;47.540;19.088;2023-03-01T10:08:43;101309.44;;;18.03;29.88
75972;BME280;64651;47.540;19.088;2023-03-01T10:18:59;101308.44;;;22.35;24.52
75972;BME280;64651;47.540;19.088;2023-03-01T10:24:14;101285.66;;;24.03;21.57
75972;BME280;64651;47.540;19.088;2023-03-01T10:29:21;101288.06;;;25.26;19.75
75972;BME280;64651;47.540;19.088;2023-03-01T10:34:34;101259.97;;;26.29;19.33
75972;BME280;64651;47.540;19.088;2023-03-01T10:39:54;101255.03;;;28.60;16.74
75972;BME280;64651;47.540;19.088;2023-03-01T10:44:57;101248.06;;;27.05;17.58
75972;BME280;64651;47.540;19.088;2023-03-01T10:50:03;101244.06;;;28.32;16.51
75972;BME280;64651;47.540;19.088;2023-03-01T11:00:29;101221.69;;;30.13;15.18
75972;BME280;64651;47.540;19.088;2023-03-01T11:05:31;101219.22;;;30.08;14.70
75972;BME280;64651;47.540;19.088;2023-03-01T11:10:39;101203.91;;;32.00;13.81
75972;BME280;64651;47.540;19.088;2023-03-01T11:15:41;101210.63;;;25.20;18.51
75972;BME280;64651;47.540;19.088;2023-03-01T11:20:44;101189.97;;;22.09;22.00
75972;BME280;64651;47.540;19.088;2023-03-01T11:25:51;101192.03;;;24.51;20.35
75972;BME280;64651;47.540;19.088;2023-03-01T11:31:07;101176.28;;;27.29;17.95
75972;BME280;64651;47.540;19.088;2023-03-01T11:36:44;101175.19;;;29.11;15.97
75972;BME280;64651;47.540;19.088;2023-03-01T11:41:56;101170.91;;;27.43;17.02
75972;BME280;64651;47.540;19.088;2023-03-01T12:29:48;101139.09;;;18.73;28.33
75972;BME280;64651;47.540;19.088;2023-03-01T12:40:32;101129.25;;;18.17;29.37
75972;BME280;64651;47.540;19.088;2023-03-01T12:46:10;101112.94;;;19.75;27.01
75972;BME280;64651;47.540;19.088;2023-03-01T12:51:29;101101.41;;;21.78;24.46
75972;BME280;64651;47.540;19.088;2023-03-01T12:56:34;101093.91;;;22.00;24.05
75972;BME280;64651;47.540;19.088;2023-03-01T13:17:48;101088.28;;;27.08;18.15
75972;BME280;64651;47.540;19.088;2023-03-01T13:33:45;101076.22;;;26.72;18.74
75972;BME280;64651;47.540;19.088;2023-03-01T13:39:32;101049.34;;;28.48;17.33
75972;BME280;64651;47.540;19.088;2023-03-01T13:44:42;101055.41;;;29.17;16.68
75972;BME280;64651;47.540;19.088;2023-03-01T13:54:53;101036.53;;;29.32;16.14
75972;BME280;64651;47.540;19.088;2023-03-01T13:59:55;101030.66;;;31.24;15.14
75972;BME280;64651;47.540;19.088;2023-03-01T14:04:59;101026.25;;;30.22;15.48
75972;BME280;64651;47.540;19.088;2023-03-01T14:10:03;101011.44;;;30.64;15.38
75972;BME280;64651;47.540;19.088;2023-03-01T14:15:22;101007.84;;;29.40;16.30
75972;BME280;64651;47.540;19.088;2023-03-01T14:20:37;101012.50;;;30.32;15.44
75972;BME280;64651;47.540;19.088;2023-03-01T14:25:54;100989.03;;;29.69;16.19
75972;BME280;64651;47.540;19.088;2023-03-01T14:30:58;100984.41;;;29.47;16.38
75972;BME280;64651;47.540;19.088;2023-03-01T14:36:10;100984.06;;;29.56;16.48
75972;BME280;64651;47.540;19.088;2023-03-01T14:41:15;100978.94;;;28.47;17.15
75972;BME280;64651;47.540;19.088;2023-03-01T14:46:35;100968.56;;;27.42;18.10
75972;BME280;64651;47.540;19.088;2023-03-01T14:51:40;100968.84;;;25.06;20.31
75972;BME280;64651;47.540;19.088;2023-03-01T14:56:45;100961.12;;;25.19;20.60
75972;BME280;64651;47.540;19.088;2023-03-01T15:01:50;100951.81;;;25.34;20.53
75972;BME280;64651;47.540;19.088;2023-03-01T15:06:55;100956.84;;;25.75;20.32
75972;BME280;64651;47.540;19.088;2023-03-01T15:11:57;100956.19;;;24.69;21.69
75972;BME280;64651;47.540;19.088;2023-03-01T15:17:00;100947.19;;;22.82;23.62
75972;BME280;64651;47.540;19.088;2023-03-01T15:22:02;100954.31;;;21.93;24.78
75972;BME280;64651;47.540;19.088;2023-03-01T15:27:17;100968.59;;;21.79;25.51
75972;BME280;64651;47.540;19.088;2023-03-01T15:37:47;100954.41;;;19.72;27.95
75972;BME280;64651;47.540;19.088;2023-03-01T15:42:50;100960.34;;;17.50;31.24
75972;BME280;64651;47.540;19.088;2023-03-01T15:47:58;100959.22;;;17.10;32.30
75972;BME280;64651;47.540;19.088;2023-03-01T15:53:11;100958.31;;;15.10;35.86
75972;BME280;64651;47.540;19.088;2023-03-01T15:58:20;100970.72;;;13.97;38.33
75972;BME280;64651;47.540;19.088;2023-03-01T16:03:23;100953.16;;;13.38;39.53
75972;BME280;64651;47.540;19.088;2023-03-01T16:08:25;100974.38;;;12.64;40.84
75972;BME280;64651;47.540;19.088;2023-03-01T16:13:27;100975.53;;;11.76;43.69
75972;BME280;64651;47.540;19.088;2023-03-01T16:18:30;100978.84;;;11.06;45.15
75972;BME280;64651;47.540;19.088;2023-03-01T16:23:32;100982.69;;;10.53;46.77
75972;BME280;64651;47.540;19.088;2023-03-01T16:28:34;100983.69;;;10.10;48.42
75972;BME280;64651;47.540;19.088;2023-03-01T16:33:37;100979.47;;;9.70;48.57
75972;BME280;64651;47.540;19.088;2023-03-01T16:38:39;100992.34;;;9.92;49.54
75972;BME280;64651;47.540;19.088;2023-03-01T16:43:42;100998.28;;;9.84;49.25
75972;BME280;64651;47.540;19.088;2023-03-01T16:48:45;100989.59;;;9.38;50.42
75972;BME280;64651;47.540;19.088;2023-03-01T16:53:49;101011.16;;;9.08;51.92
75972;BME280;64651;47.540;19.088;2023-03-01T16:58:51;101022.28;;;8.79;52.60
75972;BME280;64651;47.540;19.088;2023-03-01T17:03:53;101022.91;;;8.48;53.08
75972;BME280;64651;47.540;19.088;2023-03-01T17:08:56;101006.00;;;8.06;53.85
75972;BME280;64651;47.540;19.088;2023-03-01T17:13:58;101026.78;;;8.02;54.58
75972;BME280;64651;47.540;19.088;2023-03-01T17:19:01;101027.75;;;7.79;55.72
75972;BME280;64651;47.540;19.088;2023-03-01T17:24:04;101037.63;;;7.52;56.81
75972;BME280;64651;47.540;19.088;2023-03-01T17:29:06;101015.56;;;7.30;57.64
75972;BME280;64651;47.540;19.088;2023-03-01T17:34:08;101035.31;;;7.20;58.25
75972;BME280;64651;47.540;19.088;2023-03-01T17:39:10;100950.91;;;6.61;58.89
75972;BME280;64651;47.540;19.088;2023-03-01T17:44:13;101036.44;;;7.08;59.16
75972;BME280;64651;47.540;19.088;2023-03-01T17:49:15;101019.25;;;6.72;60.08
75972;BME280;64651;47.540;19.088;2023-03-01T17:54:19;101040.87;;;6.62;61.29
75972;BME280;64651;47.540;19.088;2023-03-01T17:59:21;101022.47;;;6.46;62.66
75972;BME280;64651;47.540;19.088;2023-03-01T18:04:23;101041.47;;;6.41;61.93
75972;BME280;64651;47.540;19.088;2023-03-01T18:09:26;101035.03;;;6.24;62.68
75972;BME280;64651;47.540;19.088;2023-03-01T18:14:29;101019.34;;;6.07;63.07
75972;BME280;64651;47.540;19.088;2023-03-01T18:19:34;101030.59;;;6.11;63.49
75972;BME280;64651;47.540;19.088;2023-03-01T18:24:37;101026.34;;;6.15;63.78
75972;BME280;64651;47.540;19.088;2023-03-01T18:29:40;101018.59;;;6.00;64.38
75972;BME280;64651;47.540;19.088;2023-03-01T18:34:42;101021.34;;;6.00;64.17
75972;BME280;64651;47.540;19.088;2023-03-01T18:39:44;101029.75;;;5.99;64.91
75972;BME280;64651;47.540;19.088;2023-03-01T18:44:47;101018.03;;;5.80;65.34
75972;BME280;64651;47.540;19.088;2023-03-01T18:49:49;101033.22;;;5.76;65.86
75972;BME280;64651;47.540;19.088;2023-03-01T18:54:51;101025.03;;;5.76;65.63
75972;BME280;64651;47.540;19.088;2023-03-01T18:59:56;101024.34;;;5.51;66.38
75972;BME280;64651;47.540;19.088;2023-03-01T19:04:58;101023.59;;;5.44;66.79
75972;BME280;64651;47.540;19.088;2023-03-01T19:10:00;101025.22;;;5.33;67.17
75972;BME280;64651;47.540;19.088;2023-03-01T19:15:03;101030.06;;;5.31;66.55
75972;BME280;64651;47.540;19.088;2023-03-01T19:20:06;101030.88;;;5.31;66.60
75972;BME280;64651;47.540;19.088;2023-03-01T19:25:09;101017.19;;;5.20;67.33
75972;BME280;64651;47.540;19.088;2023-03-01T19:30:11;101035.22;;;5.39;67.07
75972;BME280;64651;47.540;19.088;2023-03-01T19:35:14;100987.38;;;4.88;68.10
75972;BME280;64651;47.540;19.088;2023-03-01T19:40:16;101006.63;;;4.94;68.46
75972;BME280;64651;47.540;19.088;2023-03-01T19:45:18;101024.13;;;5.04;68.57
75972;BME280;64651;47.540;19.088;2023-03-01T19:50:32;101028.34;;;5.00;69.31
75972;BME280;64651;47.540;19.088;2023-03-01T19:55:35;101023.13;;;4.80;70.01
75972;BME280;64651;47.540;19.088;2023-03-01T20:00:39;101035.53;;;4.95;71.16
75972;BME280;64651;47.540;19.088;2023-03-01T20:05:45;101045.03;;;5.10;71.10
75972;BME280;64651;47.540;19.088;2023-03-01T20:10:47;101038.84;;;5.33;71.68
75972;BME280;64651;47.540;19.088;2023-03-01T20:15:49;101027.72;;;5.35;72.32
75972;BME280;64651;47.540;19.088;2023-03-01T20:20:53;101042.34;;;5.22;71.37
75972;BME280;64651;47.540;19.088;2023-03-01T20:26:06;101047.81;;;4.85;72.03
75972;BME280;64651;47.540;19.088;2023-03-01T20:31:10;101057.25;;;4.65;73.65
75972;BME280;64651;47.540;19.088;2023-03-01T20:36:14;101039.19;;;4.45;74.32
75972;BME280;64651;47.540;19.088;2023-03-01T20:41:16;101070.72;;;4.35;74.80
75972;BME280;64651;47.540;19.088;2023-03-01T20:46:18;101072.06;;;4.26;75.20
75972;BME280;64651;47.540;19.088;2023-03-01T20:51:21;101053.25;;;4.18;75.08
75972;BME280;64651;47.540;19.088;2023-03-01T20:56:23;101080.19;;;4.32;74.75
75972;BME280;64651;47.540;19.088;2023-03-01T21:01:27;101082.66;;;4.09;75.46
75972;BME280;64651;47.540;19.088;2023-03-01T21:06:30;101092.81;;;3.95;76.23
75972;BME280;64651;47.540;19.088;2023-03-01T21:11:33;101084.56;;;4.08;76.48
75972;BME280;64651;47.540;19.088;2023-03-01T21:16:35;101094.31;;;4.16;76.37
75972;BME280;64651;47.540;19.088;2023-03-01T21:21:38;101095.56;;;4.20;75.54
75972;BME280;64651;47.540;19.088;2023-03-01T21:26:40;101074.84;;;3.88;76.07
75972;BME280;64651;47.540;19.088;2023-03-01T21:31:42;101101.84;;;3.89;76.92
75972;BME280;64651;47.540;19.088;2023-03-01T21:36:44;101100.59;;;3.85;76.29
75972;BME280;64651;47.540;19.088;2023-03-01T21:41:49;101108.22;;;3.70;77.36
75972;BME280;64651;47.540;19.088;2023-03-01T21:46:51;101103.50;;;3.52;77.24
75972;BME280;64651;47.540;19.088;2023-03-01T21:51:54;101103.94;;;3.43;78.36
75972;BME280;64651;47.540;19.088;2023-03-01T21:56:56;101100.66;;;3.34;77.26
75972;BME280;64651;47.540;19.088;2023-03-01T22:01:58;101100.69;;;3.21;78.30
75972;BME280;64651;47.540;19.088;2023-03-01T22:07:01;101095.44;;;3.26;77.63
75972;BME280;64651;47.540;19.088;2023-03-01T22:12:04;101096.59;;;2.99;78.50
75972;BME280;64651;47.540;19.088;2023-03-01T22:17:07;101098.03;;;3.01;79.16
75972;BME280;64651;47.540;19.088;2023-03-01T22:22:12;101098.03;;;2.95;78.66
75972;BME280;64651;47.540;19.088;2023-03-01T22:27:19;101102.22;;;2.97;78.61
75972;BME280;64651;47.540;19.088;2023-03-01T22:32:25;101093.44;;;3.02;78.95
75972;BME280;64651;47.540;19.088;2023-03-01T22:37:27;101093.72;;;2.74;79.49
75972;BME280;64651;47.540;19.088;2023-03-01T22:42:29;101088.09;;;2.42;80.30
75972;BME280;64651;47.540;19.088;2023-03-01T22:47:34;101075.13;;;2.38;80.59
75972;BME280;64651;47.540;19.088;2023-03-01T22:52:38;101084.75;;;2.47;80.05
75972;BME280;64651;47.540;19.088;2023-03-01T22:57:40;101087.25;;;2.49;79.90
75972;BME280;64651;47.540;19.088;2023-03-01T23:02:42;101079.75;;;2.37;80.05
75972;BME280;64651;47.540;19.088;2023-03-01T23:07:48;101090.59;;;2.37;79.61
75972;BME280;64651;47.540;19.088;2023-03-01T23:12:53;101083.69;;;2.35;80.48
75972;BME280;64651;47.540;19.088;2023-03-01T23:17:56;101086.00;;;2.31;80.59
75972;BME280;64651;47.540;19.088;2023-03-01T23:22:58;101081.81;;;2.16;80.59
75972;BME280;64651;47.540;19.088;2023-03-01T23:28:02;101089.12;;;2.35;80.71
75972;BME280;64651;47.540;19.088;2023-03-01T23:33:05;101078.47;;;2.14;81.07
75972;BME280;64651;47.540;19.088;2023-03-01T23:38:07;101077.19;;;2.03;80.90
75972;BME280;64651;47.540;19.088;2023-03-01T23:43:09;101075.53;;;2.09;81.09
75972;BME280;64651;47.540;19.088;2023-03-01T23:48:12;101093.50;;;2.23;81.73
75972;BME280;64651;47.540;19.088;2023-03-01T23:53:16;101098.91;;;2.10;82.08
75972;BME280;64651;47.540;19.088;2023-03-01T23:58:18;101096.84;;;2.18;81.84
